sensor_id;sensor_type;location;lat;lon;timestamp;P1;durP1;ratioP1;P2;durP2;ratioP2
21769;SDS011;11046;49.558;8.674;2023-06-14T00:02:47;7.75;;;5.55;;
21769;SDS011;11046;49.558;8.674;2023-06-14T00:05:48;8.00;;;5.32;;
21769;SDS011;11046;49.558;8.674;2023-06-14T00:08:48;7.53;;;5.25;;
21769;SDS011;11046;49.558;8.674;2023-06-14T00:11:49;7.07;;;5.25;;
21769;SDS011;11046;49.558;8.674;2023-06-14T00:14:50;8.65;;;5.57;;
21769;SDS011;11046;49.558;8.674;2023-06-14T00:17:50;8.50;;;5.18;;
21769;SDS011;11046;49.558;8.674;2023-06-14T00:20:51;9.23;;;5.53;;
21769;SDS011;11046;49.558;8.674;2023-06-14T00:23:52;8.50;;;5.47;;
21769;SDS011;11046;49.558;8.674;2023-06-14T00:26:52;8.07;;;5.90;;
21769;SDS011;11046;49.558;8.674;2023-06-14T00:29:53;8.13;;;5.82;;
21769;SDS011;11046;49.558;8.674;2023-06-14T00:32:53;10.88;;;5.40;;
21769;SDS011;11046;49.558;8.674;2023-06-14T00:35:54;9.02;;;5.40;;
21769;SDS011;11046;49.558;8.674;2023-06-14T00:38:55;8.60;;;5.88;;
21769;SDS011;11046;49.558;8.674;2023-06-14T00:41:56;10.05;;;5.80;;
21769;SDS011;11046;49.558;8.674;2023-06-14T00:44:57;9.50;;;5.63;;
21769;SDS011;11046;49.558;8.674;2023-06-14T00:48:00;8.07;;;4.97;;
21769;SDS011;11046;49.558;8.674;2023-06-14T00:51:02;12.20;;;5.75;;
21769;SDS011;11046;49.558;8.674;2023-06-14T00:54:04;10.55;;;5.60;;
21769;SDS011;11046;49.558;8.674;2023-06-14T00:57:04;7.38;;;5.50;;
21769;SDS011;11046;49.558;8.674;2023-06-14T01:00:06;7.75;;;5.10;;
21769;SDS011;11046;49.558;8.674;2023-06-14T01:03:09;10.60;;;5.43;;
21769;SDS011;11046;49.558;8.674;2023-06-14T01:06:21;8.27;;;5.78;;
21769;SDS011;11046;49.558;8.674;2023-06-14T01:12:57;6.78;;;5.93;;
21769;SDS011;11046;49.558;8.674;2023-06-14T01:16:05;8.68;;;6.40;;
21769;SDS011;11046;49.558;8.674;2023-06-14T01:19:07;7.50;;;5.65;;
21769;SDS011;11046;49.558;8.674;2023-06-14T01:22:14;9.38;;;5.78;;
21769;SDS011;11046;49.558;8.674;2023-06-14T01:25:15;9.60;;;5.95;;
21769;SDS011;11046;49.558;8.674;2023-06-14T01:28:16;8.38;;;5.93;;
21769;SDS011;11046;49.558;8.674;2023-06-14T01:31:19;7.63;;;5.40;;
21769;SDS011;11046;49.558;8.674;2023-06-14T01:34:22;6.28;;;5.40;;
21769;SDS011;11046;49.558;8.674;2023-06-14T01:37:25;10.10;;;5.25;;
21769;SDS011;11046;49.558;8.674;2023-06-14T01:40:26;9.10;;;5.97;;
21769;SDS011;11046;49.558;8.674;2023-06-14T01:43:28;7.45;;;5.50;;
21769;SDS011;11046;49.558;8.674;2023-06-14T01:46:30;7.80;;;5.63;;
21769;SDS011;11046;49.558;8.674;2023-06-14T01:49:33;6.53;;;5.40;;
21769;SDS011;11046;49.558;8.674;2023-06-14T01:52:36;8.55;;;5.53;;
21769;SDS011;11046;49.558;8.674;2023-06-14T01:55:37;11.80;;;5.72;;
21769;SDS011;11046;49.558;8.674;2023-06-14T01:58:40;11.43;;;5.60;;
21769;SDS011;11046;49.558;8.674;2023-06-14T02:01:41;8.23;;;5.55;;
21769;SDS011;11046;49.558;8.674;2023-06-14T02:04:42;11.20;;;5.43;;
21769;SDS011;11046;49.558;8.674;2023-06-14T02:07:43;9.60;;;5.50;;
21769;SDS011;11046;49.558;8.674;2023-06-14T02:10:43;9.00;;;5.50;;
21769;SDS011;11046;49.558;8.674;2023-06-14T02:13:44;6.45;;;5.45;;
21769;SDS011;11046;49.558;8.674;2023-06-14T02:16:45;8.98;;;5.53;;
21769;SDS011;11046;49.558;8.674;2023-06-14T02:19:49;6.50;;;5.45;;
21769;SDS011;11046;49.558;8.674;2023-06-14T02:22:50;8.63;;;5.90;;
21769;SDS011;11046;49.558;8.674;2023-06-14T02:25:51;8.05;;;5.88;;
21769;SDS011;11046;49.558;8.674;2023-06-14T02:28:51;7.57;;;5.75;;
21769;SDS011;11046;49.558;8.674;2023-06-14T02:31:52;11.30;;;5.63;;
21769;SDS011;11046;49.558;8.674;2023-06-14T02:34:54;7.95;;;5.70;;
21769;SDS011;11046;49.558;8.674;2023-06-14T02:37:55;8.70;;;5.47;;
21769;SDS011;11046;49.558;8.674;2023-06-14T02:40:56;10.57;;;5.82;;
21769;SDS011;11046;49.558;8.674;2023-06-14T02:43:56;9.10;;;5.68;;
21769;SDS011;11046;49.558;8.674;2023-06-14T02:46:58;9.25;;;5.78;;
21769;SDS011;11046;49.558;8.674;2023-06-14T02:50:00;7.88;;;6.03;;
21769;SDS011;11046;49.558;8.674;2023-06-14T02:53:02;6.55;;;5.25;;
21769;SDS011;11046;49.558;8.674;2023-06-14T02:56:03;8.15;;;5.45;;
21769;SDS011;11046;49.558;8.674;2023-06-14T02:59:04;8.77;;;5.88;;
21769;SDS011;11046;49.558;8.674;2023-06-14T03:02:06;10.27;;;5.88;;
21769;SDS011;11046;49.558;8.674;2023-06-14T03:05:07;12.77;;;7.13;;
21769;SDS011;11046;49.558;8.674;2023-06-14T03:08:09;8.52;;;5.97;;
21769;SDS011;11046;49.558;8.674;2023-06-14T03:11:10;10.95;;;5.75;;
21769;SDS011;11046;49.558;8.674;2023-06-14T03:14:11;9.07;;;5.70;;
21769;SDS011;11046;49.558;8.674;2023-06-14T03:17:13;6.93;;;5.30;;
21769;SDS011;11046;49.558;8.674;2023-06-14T03:20:15;7.32;;;5.90;;
21769;SDS011;11046;49.558;8.674;2023-06-14T03:23:16;11.43;;;5.63;;
21769;SDS011;11046;49.558;8.674;2023-06-14T03:26:17;7.05;;;5.60;;
21769;SDS011;11046;49.558;8.674;2023-06-14T03:29:19;9.73;;;5.65;;
21769;SDS011;11046;49.558;8.674;2023-06-14T03:32:19;7.93;;;5.90;;
21769;SDS011;11046;49.558;8.674;2023-06-14T03:35:20;9.38;;;5.80;;
21769;SDS011;11046;49.558;8.674;2023-06-14T03:38:22;7.57;;;5.50;;
21769;SDS011;11046;49.558;8.674;2023-06-14T03:41:24;7.80;;;5.35;;
21769;SDS011;11046;49.558;8.674;2023-06-14T03:44:26;10.13;;;6.20;;
21769;SDS011;11046;49.558;8.674;2023-06-14T03:47:27;8.38;;;5.60;;
21769;SDS011;11046;49.558;8.674;2023-06-14T03:50:29;10.02;;;5.75;;
21769;SDS011;11046;49.558;8.674;2023-06-14T03:53:30;8.73;;;5.70;;
21769;SDS011;11046;49.558;8.674;2023-06-14T03:56:31;7.30;;;5.55;;
21769;SDS011;11046;49.558;8.674;2023-06-14T03:59:32;12.05;;;6.05;;
21769;SDS011;11046;49.558;8.674;2023-06-14T04:02:33;10.02;;;6.00;;
21769;SDS011;11046;49.558;8.674;2023-06-14T04:05:33;7.70;;;5.30;;
21769;SDS011;11046;49.558;8.674;2023-06-14T04:08:34;7.65;;;6.28;;
21769;SDS011;11046;49.558;8.674;2023-06-14T04:11:35;10.00;;;7.15;;
21769;SDS011;11046;49.558;8.674;2023-06-14T04:14:37;9.27;;;5.80;;
21769;SDS011;11046;49.558;8.674;2023-06-14T04:17:38;10.32;;;5.25;;
21769;SDS011;11046;49.558;8.674;2023-06-14T04:20:39;9.23;;;6.00;;
21769;SDS011;11046;49.558;8.674;2023-06-14T04:23:42;9.18;;;5.57;;
21769;SDS011;11046;49.558;8.674;2023-06-14T04:26:45;6.63;;;5.78;;
21769;SDS011;11046;49.558;8.674;2023-06-14T04:29:49;8.02;;;5.90;;
21769;SDS011;11046;49.558;8.674;2023-06-14T04:32:57;9.93;;;5.70;;
21769;SDS011;11046;49.558;8.674;2023-06-14T04:35:58;8.52;;;6.05;;
21769;SDS011;11046;49.558;8.674;2023-06-14T04:39:01;14.27;;;6.18;;
21769;SDS011;11046;49.558;8.674;2023-06-14T04:42:04;12.68;;;6.28;;
21769;SDS011;11046;49.558;8.674;2023-06-14T04:45:08;11.73;;;6.30;;
21769;SDS011;11046;49.558;8.674;2023-06-14T04:48:11;8.93;;;5.72;;
21769;SDS011;11046;49.558;8.674;2023-06-14T04:51:12;9.05;;;6.68;;
21769;SDS011;11046;49.558;8.674;2023-06-14T04:54:13;9.05;;;6.10;;
21769;SDS011;11046;49.558;8.674;2023-06-14T04:57:14;11.57;;;6.07;;
21769;SDS011;11046;49.558;8.674;2023-06-14T05:00:19;11.93;;;6.25;;
21769;SDS011;11046;49.558;8.674;2023-06-14T05:03:21;7.97;;;5.70;;
21769;SDS011;11046;49.558;8.674;2023-06-14T05:06:22;7.88;;;6.10;;
21769;SDS011;11046;49.558;8.674;2023-06-14T05:09:22;9.00;;;5.57;;
21769;SDS011;11046;49.558;8.674;2023-06-14T05:12:24;8.32;;;6.05;;
21769;SDS011;11046;49.558;8.674;2023-06-14T05:15:25;10.13;;;6.55;;
21769;SDS011;11046;49.558;8.674;2023-06-14T05:18:27;8.15;;;5.82;;
21769;SDS011;11046;49.558;8.674;2023-06-14T05:21:28;17.60;;;6.13;;
21769;SDS011;11046;49.558;8.674;2023-06-14T05:24:28;14.15;;;6.43;;
21769;SDS011;11046;49.558;8.674;2023-06-14T05:27:32;8.93;;;5.50;;
21769;SDS011;11046;49.558;8.674;2023-06-14T05:30:35;12.07;;;6.18;;
21769;SDS011;11046;49.558;8.674;2023-06-14T05:33:36;10.15;;;5.88;;
21769;SDS011;11046;49.558;8.674;2023-06-14T05:36:36;10.40;;;6.28;;
21769;SDS011;11046;49.558;8.674;2023-06-14T05:39:37;7.60;;;5.47;;
21769;SDS011;11046;49.558;8.674;2023-06-14T05:42:38;10.23;;;5.22;;
21769;SDS011;11046;49.558;8.674;2023-06-14T05:45:38;12.82;;;5.72;;
21769;SDS011;11046;49.558;8.674;2023-06-14T05:48:39;9.65;;;5.82;;
21769;SDS011;11046;49.558;8.674;2023-06-14T05:51:40;10.85;;;6.00;;
21769;SDS011;11046;49.558;8.674;2023-06-14T05:54:41;7.30;;;5.78;;
21769;SDS011;11046;49.558;8.674;2023-06-14T05:57:42;6.82;;;5.65;;
21769;SDS011;11046;49.558;8.674;2023-06-14T06:00:42;8.27;;;5.75;;
21769;SDS011;11046;49.558;8.674;2023-06-14T06:03:43;8.13;;;5.43;;
21769;SDS011;11046;49.558;8.674;2023-06-14T06:06:47;8.32;;;5.90;;
21769;SDS011;11046;49.558;8.674;2023-06-14T06:09:48;6.53;;;5.60;;
21769;SDS011;11046;49.558;8.674;2023-06-14T06:12:48;6.43;;;5.15;;
21769;SDS011;11046;49.558;8.674;2023-06-14T06:15:52;10.98;;;5.63;;
21769;SDS011;11046;49.558;8.674;2023-06-14T06:18:52;8.60;;;5.38;;
21769;SDS011;11046;49.558;8.674;2023-06-14T06:21:53;10.77;;;5.30;;
21769;SDS011;11046;49.558;8.674;2023-06-14T06:24:53;7.70;;;5.53;;
21769;SDS011;11046;49.558;8.674;2023-06-14T06:27:54;6.40;;;5.03;;
21769;SDS011;11046;49.558;8.674;2023-06-14T06:30:58;11.85;;;5.50;;
21769;SDS011;11046;49.558;8.674;2023-06-14T06:33:59;7.18;;;4.97;;
21769;SDS011;11046;49.558;8.674;2023-06-14T06:36:59;9.60;;;5.10;;
21769;SDS011;11046;49.558;8.674;2023-06-14T06:40:01;9.35;;;5.57;;
21769;SDS011;11046;49.558;8.674;2023-06-14T06:43:02;7.60;;;5.28;;
21769;SDS011;11046;49.558;8.674;2023-06-14T06:46:03;5.88;;;4.93;;
21769;SDS011;11046;49.558;8.674;2023-06-14T06:49:03;8.70;;;5.40;;
21769;SDS011;11046;49.558;8.674;2023-06-14T06:52:05;10.45;;;4.90;;
21769;SDS011;11046;49.558;8.674;2023-06-14T06:55:06;6.72;;;4.85;;
21769;SDS011;11046;49.558;8.674;2023-06-14T06:58:08;8.07;;;4.80;;
21769;SDS011;11046;49.558;8.674;2023-06-14T07:01:09;8.43;;;5.00;;
21769;SDS011;11046;49.558;8.674;2023-06-14T07:04:10;8.45;;;4.43;;
21769;SDS011;11046;49.558;8.674;2023-06-14T07:07:10;8.15;;;4.80;;
21769;SDS011;11046;49.558;8.674;2023-06-14T07:10:11;5.07;;;4.57;;
21769;SDS011;11046;49.558;8.674;2023-06-14T07:13:12;5.32;;;4.38;;
21769;SDS011;11046;49.558;8.674;2023-06-14T07:16:12;5.80;;;4.78;;
21769;SDS011;11046;49.558;8.674;2023-06-14T07:19:13;6.57;;;4.32;;
21769;SDS011;11046;49.558;8.674;2023-06-14T07:22:13;6.50;;;4.53;;
21769;SDS011;11046;49.558;8.674;2023-06-14T07:25:14;6.20;;;4.60;;
21769;SDS011;11046;49.558;8.674;2023-06-14T07:28:16;7.78;;;4.50;;
21769;SDS011;11046;49.558;8.674;2023-06-14T07:31:16;4.97;;;3.88;;
21769;SDS011;11046;49.558;8.674;2023-06-14T07:34:19;7.78;;;4.63;;
21769;SDS011;11046;49.558;8.674;2023-06-14T07:37:19;7.07;;;4.57;;
21769;SDS011;11046;49.558;8.674;2023-06-14T07:40:20;5.28;;;4.60;;
21769;SDS011;11046;49.558;8.674;2023-06-14T07:43:21;6.50;;;4.53;;
21769;SDS011;11046;49.558;8.674;2023-06-14T07:46:21;5.18;;;4.30;;
21769;SDS011;11046;49.558;8.674;2023-06-14T07:49:22;5.35;;;4.00;;
21769;SDS011;11046;49.558;8.674;2023-06-14T07:52:23;5.60;;;4.35;;
21769;SDS011;11046;49.558;8.674;2023-06-14T07:55:23;5.65;;;4.43;;
21769;SDS011;11046;49.558;8.674;2023-06-14T07:58:25;4.95;;;4.03;;
21769;SDS011;11046;49.558;8.674;2023-06-14T08:01:26;5.68;;;4.15;;
21769;SDS011;11046;49.558;8.674;2023-06-14T08:04:27;5.40;;;4.45;;
21769;SDS011;11046;49.558;8.674;2023-06-14T08:07:28;5.75;;;3.97;;
21769;SDS011;11046;49.558;8.674;2023-06-14T08:10:29;6.07;;;4.07;;
21769;SDS011;11046;49.558;8.674;2023-06-14T08:13:29;5.05;;;4.55;;
21769;SDS011;11046;49.558;8.674;2023-06-14T08:16:30;5.90;;;4.30;;
21769;SDS011;11046;49.558;8.674;2023-06-14T08:19:30;7.75;;;4.18;;
21769;SDS011;11046;49.558;8.674;2023-06-14T08:22:31;6.45;;;4.00;;
21769;SDS011;11046;49.558;8.674;2023-06-14T08:25:34;7.75;;;4.13;;
21769;SDS011;11046;49.558;8.674;2023-06-14T08:28:34;6.47;;;4.25;;
21769;SDS011;11046;49.558;8.674;2023-06-14T08:31:35;5.25;;;4.22;;
21769;SDS011;11046;49.558;8.674;2023-06-14T08:34:36;5.65;;;4.30;;
21769;SDS011;11046;49.558;8.674;2023-06-14T08:37:40;5.43;;;3.83;;
21769;SDS011;11046;49.558;8.674;2023-06-14T08:40:43;7.00;;;4.35;;
21769;SDS011;11046;49.558;8.674;2023-06-14T08:43:47;4.38;;;3.85;;
21769;SDS011;11046;49.558;8.674;2023-06-14T08:46:49;6.00;;;3.88;;
21769;SDS011;11046;49.558;8.674;2023-06-14T08:49:52;8.63;;;4.10;;
21769;SDS011;11046;49.558;8.674;2023-06-14T08:52:58;4.55;;;3.85;;
21769;SDS011;11046;49.558;8.674;2023-06-14T08:56:03;8.63;;;3.95;;
21769;SDS011;11046;49.558;8.674;2023-06-14T08:59:04;6.93;;;4.20;;
21769;SDS011;11046;49.558;8.674;2023-06-14T09:02:06;4.82;;;4.25;;
21769;SDS011;11046;49.558;8.674;2023-06-14T09:05:07;7.82;;;3.65;;
21769;SDS011;11046;49.558;8.674;2023-06-14T09:08:08;6.93;;;3.63;;
21769;SDS011;11046;49.558;8.674;2023-06-14T09:11:11;8.07;;;4.13;;
21769;SDS011;11046;49.558;8.674;2023-06-14T09:14:12;4.78;;;3.88;;
21769;SDS011;11046;49.558;8.674;2023-06-14T09:17:13;5.40;;;3.67;;
21769;SDS011;11046;49.558;8.674;2023-06-14T09:20:15;3.97;;;3.58;;
21769;SDS011;11046;49.558;8.674;2023-06-14T09:23:20;10.32;;;3.67;;
21769;SDS011;11046;49.558;8.674;2023-06-14T09:26:22;6.82;;;3.40;;
21769;SDS011;11046;49.558;8.674;2023-06-14T09:29:23;4.53;;;3.38;;
21769;SDS011;11046;49.558;8.674;2023-06-14T09:32:24;6.22;;;3.65;;
21769;SDS011;11046;49.558;8.674;2023-06-14T09:35:25;4.13;;;3.10;;
21769;SDS011;11046;49.558;8.674;2023-06-14T09:38:28;4.20;;;3.42;;
21769;SDS011;11046;49.558;8.674;2023-06-14T09:41:35;4.20;;;3.20;;
21769;SDS011;11046;49.558;8.674;2023-06-14T09:44:36;6.72;;;3.83;;
21769;SDS011;11046;49.558;8.674;2023-06-14T09:47:37;6.07;;;3.45;;
21769;SDS011;11046;49.558;8.674;2023-06-14T09:50:39;8.35;;;3.67;;
21769;SDS011;11046;49.558;8.674;2023-06-14T09:53:40;5.10;;;3.40;;
21769;SDS011;11046;49.558;8.674;2023-06-14T09:56:46;6.00;;;3.45;;
21769;SDS011;11046;49.558;8.674;2023-06-14T09:59:52;7.88;;;3.15;;
21769;SDS011;11046;49.558;8.674;2023-06-14T10:02:55;4.15;;;3.10;;
21769;SDS011;11046;49.558;8.674;2023-06-14T10:06:01;4.47;;;3.20;;
21769;SDS011;11046;49.558;8.674;2023-06-14T10:09:07;7.10;;;3.30;;
21769;SDS011;11046;49.558;8.674;2023-06-14T10:12:09;5.20;;;3.30;;
21769;SDS011;11046;49.558;8.674;2023-06-14T10:15:13;6.22;;;3.83;;
21769;SDS011;11046;49.558;8.674;2023-06-14T10:21:55;3.92;;;3.53;;
21769;SDS011;11046;49.558;8.674;2023-06-14T10:25:01;3.97;;;3.40;;
21769;SDS011;11046;49.558;8.674;2023-06-14T10:28:02;4.60;;;3.20;;
21769;SDS011;11046;49.558;8.674;2023-06-14T10:31:19;3.90;;;3.30;;
21769;SDS011;11046;49.558;8.674;2023-06-14T10:34:21;4.70;;;3.30;;
21769;SDS011;11046;49.558;8.674;2023-06-14T10:37:25;4.88;;;2.80;;
21769;SDS011;11046;49.558;8.674;2023-06-14T10:40:29;5.53;;;3.15;;
21769;SDS011;11046;49.558;8.674;2023-06-14T10:43:30;4.13;;;3.10;;
21769;SDS011;11046;49.558;8.674;2023-06-14T10:46:31;3.67;;;3.17;;
21769;SDS011;11046;49.558;8.674;2023-06-14T10:49:44;4.18;;;3.20;;
21769;SDS011;11046;49.558;8.674;2023-06-14T10:52:48;3.75;;;3.13;;
21769;SDS011;11046;49.558;8.674;2023-06-14T10:55:49;4.60;;;3.25;;
21769;SDS011;11046;49.558;8.674;2023-06-14T10:58:51;4.00;;;3.08;;
21769;SDS011;11046;49.558;8.674;2023-06-14T11:05:27;4.43;;;3.20;;
21769;SDS011;11046;49.558;8.674;2023-06-14T11:11:50;3.55;;;2.53;;
21769;SDS011;11046;49.558;8.674;2023-06-14T11:14:53;3.33;;;2.80;;
21769;SDS011;11046;49.558;8.674;2023-06-14T11:17:54;4.43;;;2.78;;
21769;SDS011;11046;49.558;8.674;2023-06-14T11:20:57;4.85;;;3.05;;
21769;SDS011;11046;49.558;8.674;2023-06-14T11:23:58;4.35;;;2.70;;
21769;SDS011;11046;49.558;8.674;2023-06-14T11:26:58;3.42;;;3.05;;
21769;SDS011;11046;49.558;8.674;2023-06-14T11:29:59;4.03;;;3.50;;
21769;SDS011;11046;49.558;8.674;2023-06-14T11:33:00;5.13;;;3.08;;
21769;SDS011;11046;49.558;8.674;2023-06-14T11:36:04;4.07;;;3.22;;
21769;SDS011;11046;49.558;8.674;2023-06-14T11:39:08;4.25;;;3.00;;
21769;SDS011;11046;49.558;8.674;2023-06-14T11:42:13;5.93;;;3.22;;
21769;SDS011;11046;49.558;8.674;2023-06-14T11:45:15;3.40;;;3.10;;
21769;SDS011;11046;49.558;8.674;2023-06-14T11:48:15;4.85;;;3.30;;
21769;SDS011;11046;49.558;8.674;2023-06-14T11:51:16;3.95;;;3.17;;
21769;SDS011;11046;49.558;8.674;2023-06-14T11:54:17;3.47;;;3.10;;
21769;SDS011;11046;49.558;8.674;2023-06-14T11:57:17;4.00;;;3.30;;
21769;SDS011;11046;49.558;8.674;2023-06-14T12:00:19;5.22;;;3.30;;
21769;SDS011;11046;49.558;8.674;2023-06-14T12:03:24;3.60;;;3.03;;
21769;SDS011;11046;49.558;8.674;2023-06-14T12:06:29;6.45;;;2.92;;
21769;SDS011;11046;49.558;8.674;2023-06-14T12:09:33;7.22;;;2.88;;
21769;SDS011;11046;49.558;8.674;2023-06-14T12:12:35;9.25;;;3.00;;
21769;SDS011;11046;49.558;8.674;2023-06-14T12:15:39;2.90;;;2.60;;
21769;SDS011;11046;49.558;8.674;2023-06-14T12:18:40;3.78;;;2.90;;
21769;SDS011;11046;49.558;8.674;2023-06-14T12:21:45;3.17;;;2.88;;
21769;SDS011;11046;49.558;8.674;2023-06-14T12:24:51;3.33;;;2.95;;
21769;SDS011;11046;49.558;8.674;2023-06-14T12:27:56;5.15;;;3.00;;
21769;SDS011;11046;49.558;8.674;2023-06-14T12:30:57;6.30;;;2.88;;
21769;SDS011;11046;49.558;8.674;2023-06-14T12:33:58;3.13;;;2.83;;
21769;SDS011;11046;49.558;8.674;2023-06-14T12:36:59;3.53;;;2.78;;
21769;SDS011;11046;49.558;8.674;2023-06-14T12:40:00;3.58;;;3.08;;
21769;SDS011;11046;49.558;8.674;2023-06-14T12:43:00;5.30;;;3.10;;
21769;SDS011;11046;49.558;8.674;2023-06-14T12:46:01;4.28;;;2.90;;
21769;SDS011;11046;49.558;8.674;2023-06-14T12:49:01;3.60;;;3.10;;
21769;SDS011;11046;49.558;8.674;2023-06-14T12:52:02;6.28;;;3.53;;
21769;SDS011;11046;49.558;8.674;2023-06-14T12:55:06;4.95;;;3.38;;
21769;SDS011;11046;49.558;8.674;2023-06-14T12:58:07;3.92;;;3.05;;
21769;SDS011;11046;49.558;8.674;2023-06-14T13:01:07;4.05;;;3.10;;
21769;SDS011;11046;49.558;8.674;2023-06-14T13:04:08;4.22;;;3.33;;
21769;SDS011;11046;49.558;8.674;2023-06-14T13:07:08;3.95;;;3.10;;
21769;SDS011;11046;49.558;8.674;2023-06-14T13:10:10;3.45;;;3.15;;
21769;SDS011;11046;49.558;8.674;2023-06-14T13:13:11;6.18;;;3.47;;
21769;SDS011;11046;49.558;8.674;2023-06-14T13:16:12;5.30;;;3.13;;
21769;SDS011;11046;49.558;8.674;2023-06-14T13:19:14;6.82;;;3.20;;
21769;SDS011;11046;49.558;8.674;2023-06-14T13:22:15;5.65;;;3.70;;
21769;SDS011;11046;49.558;8.674;2023-06-14T13:25:15;3.30;;;3.00;;
21769;SDS011;11046;49.558;8.674;2023-06-14T13:28:16;4.90;;;3.50;;
21769;SDS011;11046;49.558;8.674;2023-06-14T13:31:17;4.13;;;3.53;;
21769;SDS011;11046;49.558;8.674;2023-06-14T13:34:17;4.45;;;3.20;;
21769;SDS011;11046;49.558;8.674;2023-06-14T13:37:18;3.90;;;3.50;;
21769;SDS011;11046;49.558;8.674;2023-06-14T13:40:18;5.05;;;3.50;;
21769;SDS011;11046;49.558;8.674;2023-06-14T13:43:19;4.75;;;3.63;;
21769;SDS011;11046;49.558;8.674;2023-06-14T13:46:20;4.10;;;3.70;;
21769;SDS011;11046;49.558;8.674;2023-06-14T13:49:20;6.38;;;3.40;;
21769;SDS011;11046;49.558;8.674;2023-06-14T13:52:21;5.53;;;3.75;;
21769;SDS011;11046;49.558;8.674;2023-06-14T13:55:21;5.32;;;3.58;;
21769;SDS011;11046;49.558;8.674;2023-06-14T13:58:22;4.13;;;3.70;;
21769;SDS011;11046;49.558;8.674;2023-06-14T14:01:24;3.80;;;3.20;;
21769;SDS011;11046;49.558;8.674;2023-06-14T14:04:25;3.63;;;3.33;;
21769;SDS011;11046;49.558;8.674;2023-06-14T14:07:26;4.18;;;3.13;;
21769;SDS011;11046;49.558;8.674;2023-06-14T14:10:28;3.50;;;3.10;;
21769;SDS011;11046;49.558;8.674;2023-06-14T14:13:29;4.18;;;3.33;;
21769;SDS011;11046;49.558;8.674;2023-06-14T14:16:29;8.57;;;3.45;;
21769;SDS011;11046;49.558;8.674;2023-06-14T14:19:30;4.78;;;3.80;;
21769;SDS011;11046;49.558;8.674;2023-06-14T14:22:31;4.10;;;3.28;;
21769;SDS011;11046;49.558;8.674;2023-06-14T14:25:31;4.32;;;3.53;;
21769;SDS011;11046;49.558;8.674;2023-06-14T14:28:32;4.10;;;3.30;;
21769;SDS011;11046;49.558;8.674;2023-06-14T14:31:33;4.28;;;3.63;;
21769;SDS011;11046;49.558;8.674;2023-06-14T14:34:34;4.03;;;3.50;;
21769;SDS011;11046;49.558;8.674;2023-06-14T14:37:34;4.35;;;3.47;;
21769;SDS011;11046;49.558;8.674;2023-06-14T14:40:35;3.63;;;3.20;;
21769;SDS011;11046;49.558;8.674;2023-06-14T14:43:35;4.57;;;3.55;;
21769;SDS011;11046;49.558;8.674;2023-06-14T14:46:36;4.30;;;3.45;;
21769;SDS011;11046;49.558;8.674;2023-06-14T14:49:37;3.58;;;3.28;;
21769;SDS011;11046;49.558;8.674;2023-06-14T14:52:38;4.35;;;3.28;;
21769;SDS011;11046;49.558;8.674;2023-06-14T14:55:38;3.83;;;3.03;;
21769;SDS011;11046;49.558;8.674;2023-06-14T14:58:41;5.82;;;3.28;;
21769;SDS011;11046;49.558;8.674;2023-06-14T15:01:41;4.35;;;3.45;;
21769;SDS011;11046;49.558;8.674;2023-06-14T15:04:42;3.35;;;3.05;;
21769;SDS011;11046;49.558;8.674;2023-06-14T15:07:43;7.10;;;3.17;;
21769;SDS011;11046;49.558;8.674;2023-06-14T15:10:45;4.68;;;3.20;;
21769;SDS011;11046;49.558;8.674;2023-06-14T15:13:47;7.20;;;3.40;;
21769;SDS011;11046;49.558;8.674;2023-06-14T15:16:48;7.88;;;3.50;;
21769;SDS011;11046;49.558;8.674;2023-06-14T15:19:49;3.63;;;3.33;;
21769;SDS011;11046;49.558;8.674;2023-06-14T15:22:50;4.47;;;3.10;;
21769;SDS011;11046;49.558;8.674;2023-06-14T15:25:51;4.13;;;3.17;;
21769;SDS011;11046;49.558;8.674;2023-06-14T15:28:52;4.15;;;3.47;;
21769;SDS011;11046;49.558;8.674;2023-06-14T15:31:52;4.63;;;3.35;;
21769;SDS011;11046;49.558;8.674;2023-06-14T15:34:54;4.25;;;3.22;;
21769;SDS011;11046;49.558;8.674;2023-06-14T15:37:55;4.88;;;3.53;;
21769;SDS011;11046;49.558;8.674;2023-06-14T15:40:55;3.58;;;3.20;;
21769;SDS011;11046;49.558;8.674;2023-06-14T15:43:56;3.88;;;3.53;;
21769;SDS011;11046;49.558;8.674;2023-06-14T15:46:57;4.38;;;3.40;;
21769;SDS011;11046;49.558;8.674;2023-06-14T15:49:57;12.52;;;3.35;;
21769;SDS011;11046;49.558;8.674;2023-06-14T15:52:58;5.95;;;3.40;;
21769;SDS011;11046;49.558;8.674;2023-06-14T15:55:58;5.10;;;3.33;;
21769;SDS011;11046;49.558;8.674;2023-06-14T15:58:59;8.75;;;2.92;;
21769;SDS011;11046;49.558;8.674;2023-06-14T16:01:59;3.45;;;3.15;;
21769;SDS011;11046;49.558;8.674;2023-06-14T16:05:00;8.55;;;3.08;;
21769;SDS011;11046;49.558;8.674;2023-06-14T16:08:01;4.93;;;3.28;;
21769;SDS011;11046;49.558;8.674;2023-06-14T16:11:01;3.78;;;2.80;;
21769;SDS011;11046;49.558;8.674;2023-06-14T16:14:02;3.15;;;2.85;;
21769;SDS011;11046;49.558;8.674;2023-06-14T16:17:02;4.50;;;3.70;;
21769;SDS011;11046;49.558;8.674;2023-06-14T16:20:03;6.30;;;3.33;;
21769;SDS011;11046;49.558;8.674;2023-06-14T16:23:04;3.83;;;3.00;;
21769;SDS011;11046;49.558;8.674;2023-06-14T16:26:05;4.63;;;3.28;;
21769;SDS011;11046;49.558;8.674;2023-06-14T16:29:09;3.65;;;3.28;;
21769;SDS011;11046;49.558;8.674;2023-06-14T16:32:09;4.00;;;3.17;;
21769;SDS011;11046;49.558;8.674;2023-06-14T16:35:10;3.60;;;3.25;;
21769;SDS011;11046;49.558;8.674;2023-06-14T16:38:11;5.75;;;3.05;;
21769;SDS011;11046;49.558;8.674;2023-06-14T16:41:11;4.03;;;3.60;;
21769;SDS011;11046;49.558;8.674;2023-06-14T16:44:13;3.78;;;3.45;;
21769;SDS011;11046;49.558;8.674;2023-06-14T16:47:14;6.97;;;3.67;;
21769;SDS011;11046;49.558;8.674;2023-06-14T16:50:14;6.60;;;3.42;;
21769;SDS011;11046;49.558;8.674;2023-06-14T16:53:15;5.78;;;3.72;;
21769;SDS011;11046;49.558;8.674;2023-06-14T16:56:16;3.92;;;3.53;;
21769;SDS011;11046;49.558;8.674;2023-06-14T16:59:17;5.40;;;3.45;;
21769;SDS011;11046;49.558;8.674;2023-06-14T17:02:17;4.95;;;3.33;;
21769;SDS011;11046;49.558;8.674;2023-06-14T17:05:18;7.03;;;3.30;;
21769;SDS011;11046;49.558;8.674;2023-06-14T17:08:19;3.97;;;3.28;;
21769;SDS011;11046;49.558;8.674;2023-06-14T17:11:20;5.75;;;2.95;;
21769;SDS011;11046;49.558;8.674;2023-06-14T17:14:22;3.20;;;2.90;;
21769;SDS011;11046;49.558;8.674;2023-06-14T17:17:23;5.10;;;3.30;;
21769;SDS011;11046;49.558;8.674;2023-06-14T17:20:23;3.72;;;3.22;;
21769;SDS011;11046;49.558;8.674;2023-06-14T17:23:25;7.13;;;3.20;;
21769;SDS011;11046;49.558;8.674;2023-06-14T17:26:25;6.18;;;3.58;;
21769;SDS011;11046;49.558;8.674;2023-06-14T17:29:26;4.72;;;3.28;;
21769;SDS011;11046;49.558;8.674;2023-06-14T17:32:27;3.88;;;3.05;;
21769;SDS011;11046;49.558;8.674;2023-06-14T17:35:27;6.25;;;3.65;;
21769;SDS011;11046;49.558;8.674;2023-06-14T17:38:28;4.82;;;3.47;;
21769;SDS011;11046;49.558;8.674;2023-06-14T17:41:30;6.35;;;3.28;;
21769;SDS011;11046;49.558;8.674;2023-06-14T17:44:30;5.25;;;3.35;;
21769;SDS011;11046;49.558;8.674;2023-06-14T17:47:31;4.53;;;3.25;;
21769;SDS011;11046;49.558;8.674;2023-06-14T17:50:31;3.90;;;3.08;;
21769;SDS011;11046;49.558;8.674;2023-06-14T17:53:34;4.70;;;3.10;;
21769;SDS011;11046;49.558;8.674;2023-06-14T17:56:34;3.30;;;2.92;;
21769;SDS011;11046;49.558;8.674;2023-06-14T17:59:35;4.30;;;3.20;;
21769;SDS011;11046;49.558;8.674;2023-06-14T18:02:36;3.78;;;2.90;;
21769;SDS011;11046;49.558;8.674;2023-06-14T18:05:36;4.00;;;2.85;;
21769;SDS011;11046;49.558;8.674;2023-06-14T18:08:37;4.45;;;3.10;;
21769;SDS011;11046;49.558;8.674;2023-06-14T18:11:38;5.72;;;3.70;;
21769;SDS011;11046;49.558;8.674;2023-06-14T18:14:38;4.22;;;3.20;;
21769;SDS011;11046;49.558;8.674;2023-06-14T18:17:39;4.13;;;2.95;;
21769;SDS011;11046;49.558;8.674;2023-06-14T18:20:39;5.13;;;2.90;;
21769;SDS011;11046;49.558;8.674;2023-06-14T18:23:40;4.68;;;2.75;;
21769;SDS011;11046;49.558;8.674;2023-06-14T18:26:41;4.75;;;3.20;;